Pakpattan Weather



Pakpattan's Current Weather

Temprature 8.03o clear sky

clear sky

Rain: 0 %

Min Temprature8.03o
Max Temprature8.03o
Humidity61
Wind Speed3.18 m/h
Sun Rise07:03:06
Sun Set17:30:10
Current Time: 18-Jan-2021 06:19:52
Lat/Lon: 30.341, 73.3866




Pakpattan's Geo Location



Pakpattan's Weather Forecast

Time Overall Temp Min Temp Max Temp Humidity Wind Speed Rain
18-Jan-2021 (Mon)
08:00:00 clear sky 8.650 8.650 8.890 58 3.06 m/h 0 %
11:00:00 clear sky 15.550 15.550 17.510 40 3.17 m/h 0 %
14:00:00 clear sky 20.810 20.810 21.660 29 3.14 m/h 0 %
17:00:00 clear sky 18.490 18.490 18.570 32 2.78 m/h 0 %
20:00:00 clear sky 13.680 13.680 13.680 38 3.01 m/h 0 %
23:00:00 clear sky 11.950 11.950 11.950 43 2.56 m/h 0 %
19-Jan-2021 (Tue)
02:00:00 clear sky 10.360 10.360 10.360 48 2.52 m/h 0 %
05:00:00 clear sky 9.010 9.010 9.010 53 1.57 m/h 0 %
08:00:00 clear sky 10.200 10.200 10.200 50 1.67 m/h 0 %
11:00:00 clear sky 18.660 18.660 18.660 28 1.92 m/h 0 %
14:00:00 clear sky 22.830 22.830 22.830 21 2.76 m/h 0 %
17:00:00 clear sky 19.520 19.520 19.520 26 1.92 m/h 0 %
20:00:00 clear sky 14.790 14.790 14.790 35 1.54 m/h 0 %
23:00:00 clear sky 13.010 13.010 13.010 39 0.71 m/h 0 %
20-Jan-2021 (Wed)
02:00:00 clear sky 11.950 11.950 11.950 41 1.41 m/h 0 %
05:00:00 clear sky 10.500 10.500 10.500 46 1.24 m/h 0 %
08:00:00 clear sky 11.670 11.670 11.670 42 1.34 m/h 0 %
11:00:00 clear sky 20.580 20.580 20.580 24 2.33 m/h 0 %
14:00:00 clear sky 24.680 24.680 24.680 18 2.85 m/h 0 %
17:00:00 clear sky 20.760 20.760 20.760 23 1.44 m/h 0 %
20:00:00 clear sky 16.210 16.210 16.210 30 1.22 m/h 0 %
23:00:00 few clouds 14.340 14.340 14.340 33 1.96 m/h 0 %
21-Jan-2021 (Thu)
02:00:00 clear sky 12.400 12.400 12.400 38 1.35 m/h 0 %
05:00:00 clear sky 11.430 11.430 11.430 40 1.21 m/h 0 %
08:00:00 clear sky 12.770 12.770 12.770 37 0.71 m/h 0 %
11:00:00 clear sky 21.940 21.940 21.940 21 1.45 m/h 0 %
14:00:00 clear sky 25.590 25.590 25.590 16 1.98 m/h 0 %
17:00:00 clear sky 21.630 21.630 21.630 22 0.79 m/h 0 %
20:00:00 clear sky 17.450 17.450 17.450 27 2.46 m/h 0 %
23:00:00 clear sky 15.760 15.760 15.760 31 2.67 m/h 0 %
22-Jan-2021 (Fri)
02:00:00 clear sky 14.190 14.190 14.190 34 3.5 m/h 0 %
05:00:00 clear sky 12.460 12.460 12.460 38 3.83 m/h 0 %
08:00:00 clear sky 12.920 12.920 12.920 36 3.71 m/h 0 %
11:00:00 clear sky 23.010 23.010 23.010 20 4.44 m/h 0 %
14:00:00 clear sky 27.530 27.530 27.530 15 3.63 m/h 0 %
17:00:00 few clouds 23.760 23.760 23.760 19 1.91 m/h 0 %
20:00:00 broken clouds 18.830 18.830 18.830 27 1.61 m/h 0 %
23:00:00 broken clouds 17.230 17.230 17.230 29 3.64 m/h 0 %
23-Jan-2021 (Sat)
02:00:00 broken clouds 14.180 14.180 14.180 36 1.14 m/h 0 %
05:00:00 broken clouds 12.420 12.420 12.420 40 2.75 m/h 0 %

Famous Cities (60)